Time;durP1;ratioP1;P1;durP2;ratioP2;P2;SDS_P1;SDS_P2;PMS_P1;PMS_P2;Temp;Humidity;BMP_temperature;BMP_pressure;BME280_temperature;BME280_humidity;BME280_pressure;Samples;Min_cycle;Max_cycle;Signal;HPM_P1;HPM_P2
2021/05/04 00:26:53;;;;;;;1.60;1.45;;;;;;;;;;4550149;28;20086;-64
2021/05/04 00:29:19;;;;;;;1.10;1.10;;;;;;;;;;4157481;34;20215;-66
2021/05/04 00:31:45;;;;;;;2.42;2.03;;;;;;;;;;4160299;34;20131;-66
2021/05/04 00:34:11;;;;;;;2.65;2.05;;;;;;;;;;4152303;34;20138;-66
2021/05/04 00:36:37;;;;;;;1.75;1.20;;;;;;;;;;4152020;34;20110;-66
2021/05/04 00:39:04;;;;;;;2.22;1.85;;;;;;;;;;4151639;34;20127;-66
2021/05/04 00:41:30;;;;;;;3.10;1.92;;;;;;;;;;4151478;34;20111;-66
2021/05/04 00:43:56;;;;;;;2.87;2.20;;;;;;;;;;4144351;34;20123;-66
2021/05/04 00:46:22;;;;;;;2.42;1.58;;;;;;;;;;4152163;34;20680;-66
2021/05/04 00:48:48;;;;;;;1.73;1.55;;;;;;;;;;4164881;34;20126;-66
2021/05/04 00:51:14;;;;;;;5.32;2.10;;;;;;;;;;4152076;34;20209;-66
2021/05/04 00:53:43;;;;;;;1.80;1.70;;;;;;;;;;4152389;34;20113;-65
2021/05/04 00:56:09;;;;;;;2.25;1.65;;;;;;;;;;4151681;34;20103;-65
2021/05/04 00:58:35;;;;;;;2.45;2.05;;;;;;;;;;4152108;34;20157;-65
2021/05/04 01:01:02;;;;;;;2.60;1.55;;;;;;;;;;4144115;34;20205;-65
2021/05/04 01:03:28;;;;;;;1.58;1.48;;;;;;;;;;4137650;34;20127;-65
2021/05/04 01:05:54;;;;;;;1.10;1.10;;;;;;;;;;4136156;34;20287;-65
2021/05/04 01:08:20;;;;;;;2.80;1.87;;;;;;;;;;4137849;34;20123;-65
2021/05/04 01:10:46;;;;;;;3.15;2.20;;;;;;;;;;4137509;34;20501;-65
2021/05/04 01:13:12;;;;;;;3.58;2.35;;;;;;;;;;4137520;34;20135;-66
2021/05/04 01:15:40;;;;;;;5.12;2.17;;;;;;;;;;4137744;34;20477;-65
2021/05/04 01:18:06;;;;;;;1.52;1.42;;;;;;;;;;4136361;34;20111;-65
2021/05/04 01:20:32;;;;;;;2.37;1.70;;;;;;;;;;4137615;34;20123;-65
2021/05/04 01:22:58;;;;;;;4.50;2.55;;;;;;;;;;4135996;34;20309;-66
2021/05/04 01:25:24;;;;;;;2.15;1.60;;;;;;;;;;4137483;34;20115;-65
2021/05/04 01:27:50;;;;;;;3.83;2.28;;;;;;;;;;4142334;34;20134;-65
2021/05/04 01:30:16;;;;;;;2.83;2.40;;;;;;;;;;4150916;34;20110;-65
2021/05/04 01:32:42;;;;;;;1.75;1.65;;;;;;;;;;4150784;34;20142;-65
2021/05/04 01:35:10;;;;;;;3.03;2.55;;;;;;;;;;4138537;34;20563;-65
2021/05/04 01:37:37;;;;;;;3.62;2.28;;;;;;;;;;4151094;34;20110;-65
2021/05/04 01:40:03;;;;;;;3.80;2.65;;;;;;;;;;4138733;34;20108;-65
2021/05/04 01:42:29;;;;;;;3.60;2.20;;;;;;;;;;4150788;34;20534;-65
2021/05/04 01:44:55;;;;;;;2.72;2.53;;;;;;;;;;4138162;34;20135;-63
2021/05/04 01:47:21;;;;;;;3.22;2.33;;;;;;;;;;4149076;34;20479;-63
2021/05/04 01:49:47;;;;;;;3.75;1.83;;;;;;;;;;4137664;34;20143;-64
2021/05/04 01:52:13;;;;;;;2.67;2.35;;;;;;;;;;4150622;34;20131;-65
2021/05/04 01:54:39;;;;;;;7.47;1.80;;;;;;;;;;4150751;34;20143;-65
2021/05/04 01:57:05;;;;;;;5.60;2.40;;;;;;;;;;4138034;34;20122;-63
2021/05/04 01:59:32;;;;;;;2.35;2.10;;;;;;;;;;4150732;34;20135;-63
2021/05/04 02:01:58;;;;;;;10.32;2.17;;;;;;;;;;4142888;34;20124;-63
2021/05/04 02:04:24;;;;;;;4.60;1.98;;;;;;;;;;4164157;34;20536;-63
2021/05/04 02:06:51;;;;;;;3.65;1.70;;;;;;;;;;4164012;34;20131;-63
2021/05/04 02:09:17;;;;;;;6.57;2.35;;;;;;;;;;4164424;34;20123;-63
2021/05/04 02:11:43;;;;;;;4.95;2.25;;;;;;;;;;4151346;34;20123;-64
2021/05/04 02:14:09;;;;;;;1.73;1.62;;;;;;;;;;4164105;34;20131;-64
2021/05/04 02:16:35;;;;;;;1.73;1.37;;;;;;;;;;4163909;34;20133;-63
2021/05/04 02:19:01;;;;;;;5.30;2.20;;;;;;;;;;4151453;34;20118;-63
2021/05/04 02:21:27;;;;;;;1.30;1.20;;;;;;;;;;4163922;34;20141;-63
2021/05/04 02:23:53;;;;;;;1.87;1.77;;;;;;;;;;4151372;34;20119;-63
2021/05/04 02:26:19;;;;;;;2.60;1.90;;;;;;;;;;4151269;34;20111;-64
2021/05/04 02:28:45;;;;;;;3.67;2.42;;;;;;;;;;4159578;34;20565;-64
2021/05/04 02:31:12;;;;;;;4.22;2.25;;;;;;;;;;4124406;34;20135;-63
2021/05/04 02:33:38;;;;;;;11.57;2.33;;;;;;;;;;4124491;34;20153;-63
2021/05/04 02:36:05;;;;;;;2.03;1.90;;;;;;;;;;4136851;34;20098;-64
2021/05/04 02:38:31;;;;;;;5.85;2.17;;;;;;;;;;4136847;34;20134;-64
2021/05/04 02:40:58;;;;;;;1.70;1.58;;;;;;;;;;4136963;34;20225;-62
2021/05/04 02:43:24;;;;;;;1.45;1.35;;;;;;;;;;4136809;34;20103;-64
2021/05/04 02:45:50;;;;;;;2.10;1.70;;;;;;;;;;4124136;34;20099;-64
2021/05/04 02:48:16;;;;;;;2.10;1.60;;;;;;;;;;4113643;34;20226;-73
2021/05/04 02:50:42;;;;;;;2.53;2.05;;;;;;;;;;4124455;34;20107;-72
2021/05/04 02:53:08;;;;;;;2.60;1.77;;;;;;;;;;4137122;34;20099;-63
2021/05/04 02:55:33;;;;;;;3.60;2.12;;;;;;;;;;4136752;34;20201;-63
2021/05/04 02:58:00;;;;;;;4.68;1.87;;;;;;;;;;4136652;34;20226;-63
2021/05/04 03:00:26;;;;;;;1.50;1.40;;;;;;;;;;4124223;34;20131;-63
2021/05/04 03:02:52;;;;;;;6.32;1.98;;;;;;;;;;4124264;34;20465;-64
2021/05/04 03:05:18;;;;;;;3.00;1.92;;;;;;;;;;4136688;34;20125;-64
2021/05/04 03:07:45;;;;;;;12.98;2.03;;;;;;;;;;4124083;34;20123;-64
2021/05/04 03:10:11;;;;;;;4.90;2.25;;;;;;;;;;4136552;34;20198;-64
2021/05/04 03:12:37;;;;;;;1.77;1.37;;;;;;;;;;4136447;34;20118;-64
2021/05/04 03:15:04;;;;;;;2.12;1.95;;;;;;;;;;4136649;34;20150;-64
2021/05/04 03:17:30;;;;;;;1.58;1.48;;;;;;;;;;4136379;34;20540;-63
2021/05/04 03:19:56;;;;;;;3.55;2.20;;;;;;;;;;4123990;34;20126;-64
2021/05/04 03:22:22;;;;;;;2.25;2.05;;;;;;;;;;4136260;34;20131;-64
2021/05/04 03:24:48;;;;;;;4.35;1.87;;;;;;;;;;4136424;34;20492;-64
2021/05/04 03:27:14;;;;;;;2.62;1.85;;;;;;;;;;4136124;34;20179;-64
2021/05/04 03:29:40;;;;;;;1.35;1.27;;;;;;;;;;4123784;34;20135;-65
2021/05/04 03:32:06;;;;;;;2.50;1.95;;;;;;;;;;4136471;34;20143;-65
2021/05/04 03:34:32;;;;;;;7.68;2.37;;;;;;;;;;4136368;34;20626;-65
2021/05/04 03:36:58;;;;;;;3.60;1.98;;;;;;;;;;4136138;34;20218;-65
2021/05/04 03:39:24;;;;;;;3.65;1.75;;;;;;;;;;4136266;34;20107;-64
2021/05/04 03:41:51;;;;;;;2.35;1.98;;;;;;;;;;4123769;34;20112;-65
2021/05/04 03:44:17;;;;;;;6.37;2.35;;;;;;;;;;4123669;34;20217;-64
2021/05/04 03:46:43;;;;;;;4.95;1.58;;;;;;;;;;4136245;34;20521;-64
2021/05/04 03:49:10;;;;;;;1.35;1.25;;;;;;;;;;4136240;34;20104;-64
2021/05/04 03:51:37;;;;;;;6.03;2.00;;;;;;;;;;4123586;34;20120;-64
2021/05/04 03:54:03;;;;;;;1.85;1.62;;;;;;;;;;4136139;34;20110;-63
2021/05/04 03:56:29;;;;;;;8.80;2.28;;;;;;;;;;4136046;34;20112;-63
2021/05/04 03:58:55;;;;;;;7.97;2.37;;;;;;;;;;4136030;34;20139;-65
2021/05/04 04:01:22;;;;;;;4.55;2.53;;;;;;;;;;4123614;34;20119;-66
2021/05/04 04:03:48;;;;;;;2.58;1.85;;;;;;;;;;4123669;34;20104;-65
2021/05/04 04:06:14;;;;;;;2.75;1.62;;;;;;;;;;4135917;34;20110;-66
2021/05/04 04:08:41;;;;;;;2.97;2.25;;;;;;;;;;4123687;34;20611;-66
2021/05/04 04:11:07;;;;;;;5.72;1.75;;;;;;;;;;4123693;34;20514;-66
2021/05/04 04:13:33;;;;;;;1.73;1.60;;;;;;;;;;4136746;34;20131;-66
2021/05/04 04:16:00;;;;;;;3.17;1.87;;;;;;;;;;4137968;34;20092;-66
2021/05/04 04:18:26;;;;;;;2.15;1.80;;;;;;;;;;4138250;34;20130;-64
2021/05/04 04:20:52;;;;;;;3.47;1.40;;;;;;;;;;4125400;34;20533;-63
2021/05/04 04:23:18;;;;;;;1.50;1.40;;;;;;;;;;4138125;34;20546;-64
2021/05/04 04:25:44;;;;;;;3.28;1.75;;;;;;;;;;4125587;34;20143;-64
2021/05/04 04:28:10;;;;;;;2.40;1.80;;;;;;;;;;4125281;34;20562;-63
2021/05/04 04:30:36;;;;;;;4.12;2.70;;;;;;;;;;4125233;34;20112;-64
2021/05/04 04:33:04;;;;;;;1.60;1.50;;;;;;;;;;4125571;34;20199;-64
2021/05/04 04:35:30;;;;;;;2.97;1.92;;;;;;;;;;4125655;34;20179;-64
2021/05/04 04:37:56;;;;;;;3.40;2.20;;;;;;;;;;4137805;34;20127;-64
2021/05/04 04:40:22;;;;;;;4.50;2.35;;;;;;;;;;4125331;34;20127;-64
2021/05/04 04:42:48;;;;;;;0.90;0.90;;;;;;;;;;4137717;34;20115;-66
2021/05/04 04:45:14;;;;;;;2.58;2.10;;;;;;;;;;4137841;34;20129;-66
2021/05/04 04:47:40;;;;;;;4.68;2.45;;;;;;;;;;4151240;34;20206;-65
2021/05/04 04:50:07;;;;;;;4.18;2.37;;;;;;;;;;4150993;34;20282;-65
2021/05/04 04:52:34;;;;;;;2.58;1.95;;;;;;;;;;4138601;34;20107;-65
2021/05/04 04:55:00;;;;;;;1.40;1.30;;;;;;;;;;4138378;34;20100;-65
2021/05/04 04:57:26;;;;;;;2.20;1.87;;;;;;;;;;4148670;34;20468;-66
2021/05/04 04:59:52;;;;;;;1.98;1.75;;;;;;;;;;4148961;34;20116;-65
2021/05/04 05:02:19;;;;;;;2.00;1.80;;;;;;;;;;4150728;34;20118;-66
2021/05/04 05:04:47;;;;;;;3.28;1.67;;;;;;;;;;4138041;34;20532;-67
2021/05/04 05:07:14;;;;;;;2.05;1.75;;;;;;;;;;4150785;34;20115;-64
2021/05/04 05:09:41;;;;;;;1.42;1.25;;;;;;;;;;4151213;34;20129;-66
2021/05/04 05:12:08;;;;;;;2.83;2.08;;;;;;;;;;4149685;34;20138;-66
2021/05/04 05:14:35;;;;;;;4.87;1.45;;;;;;;;;;4149316;34;20127;-66
2021/05/04 05:17:02;;;;;;;2.15;1.90;;;;;;;;;;4136772;34;20482;-66
2021/05/04 05:19:28;;;;;;;2.95;1.67;;;;;;;;;;4149342;34;20123;-66
2021/05/04 05:21:54;;;;;;;2.30;2.10;;;;;;;;;;4136690;34;20122;-66
2021/05/04 05:24:20;;;;;;;5.28;1.98;;;;;;;;;;4149166;34;20139;-66
2021/05/04 05:26:48;;;;;;;5.68;2.58;;;;;;;;;;4126437;34;20532;-66
2021/05/04 05:29:15;;;;;;;1.40;1.30;;;;;;;;;;4138410;34;20127;-66
2021/05/04 05:31:41;;;;;;;5.03;1.67;;;;;;;;;;4138639;34;20549;-66
2021/05/04 05:34:07;;;;;;;4.32;1.50;;;;;;;;;;4138656;34;20110;-66
2021/05/04 05:36:33;;;;;;;3.55;2.12;;;;;;;;;;4137408;34;20220;-66
2021/05/04 05:39:00;;;;;;;2.78;1.75;;;;;;;;;;4149259;34;20119;-67
2021/05/04 05:41:26;;;;;;;5.87;2.08;;;;;;;;;;4138304;34;20206;-67
2021/05/04 05:43:52;;;;;;;2.28;1.60;;;;;;;;;;4150763;34;20527;-67
2021/05/04 05:46:18;;;;;;;2.80;2.25;;;;;;;;;;4150769;34;20107;-69
2021/05/04 05:48:44;;;;;;;6.55;2.97;;;;;;;;;;4150991;34;20219;-67
2021/05/04 05:51:10;;;;;;;2.90;1.35;;;;;;;;;;4150568;34;20111;-67
2021/05/04 05:53:37;;;;;;;2.40;1.87;;;;;;;;;;4148751;34;20115;-68
2021/05/04 05:56:04;;;;;;;2.50;1.48;;;;;;;;;;4136710;34;20127;-68
2021/05/04 05:58:30;;;;;;;6.62;1.90;;;;;;;;;;4148802;34;20131;-68
2021/05/04 06:00:56;;;;;;;3.50;2.30;;;;;;;;;;4136469;34;20123;-68
2021/05/04 06:03:23;;;;;;;4.10;2.62;;;;;;;;;;4150882;34;20127;-68
2021/05/04 06:05:51;;;;;;;3.65;1.58;;;;;;;;;;4150584;34;20099;-67
2021/05/04 06:08:17;;;;;;;3.30;2.22;;;;;;;;;;4138400;34;20115;-67
2021/05/04 06:10:43;;;;;;;3.33;2.00;;;;;;;;;;4150673;34;20540;-67
2021/05/04 06:13:09;;;;;;;4.80;2.37;;;;;;;;;;4138081;34;20114;-67
2021/05/04 06:15:35;;;;;;;10.50;2.65;;;;;;;;;;4137988;34;20115;-67
2021/05/04 06:18:02;;;;;;;6.35;2.55;;;;;;;;;;4138132;34;20114;-67
2021/05/04 06:20:28;;;;;;;4.12;2.37;;;;;;;;;;4137980;34;20570;-67
2021/05/04 06:22:54;;;;;;;1.52;1.42;;;;;;;;;;4150280;34;20143;-67
2021/05/04 06:25:20;;;;;;;4.03;1.87;;;;;;;;;;4150066;34;20619;-67
2021/05/04 06:27:45;;;;;;;10.05;2.10;;;;;;;;;;4150470;34;20134;-66
2021/05/04 06:30:13;;;;;;;8.45;2.03;;;;;;;;;;4150253;34;20111;-65
2021/05/04 06:32:40;;;;;;;2.95;1.60;;;;;;;;;;4137829;34;20106;-65
2021/05/04 06:35:07;;;;;;;2.47;2.03;;;;;;;;;;4149810;34;20131;-67
2021/05/04 06:37:34;;;;;;;6.75;1.85;;;;;;;;;;4150569;34;20111;-67
2021/05/04 06:40:00;;;;;;;6.35;2.12;;;;;;;;;;4146753;34;20111;-68
2021/05/04 06:42:27;;;;;;;7.60;2.25;;;;;;;;;;4148934;34;20203;-68
2021/05/04 06:44:53;;;;;;;9.38;1.83;;;;;;;;;;4146174;34;20245;-68
2021/05/04 06:47:19;;;;;;;1.60;1.50;;;;;;;;;;4149364;34;20551;-68
2021/05/04 06:49:45;;;;;;;1.45;1.35;;;;;;;;;;4134790;34;20111;-68
2021/05/04 06:52:11;;;;;;;7.22;2.53;;;;;;;;;;4149855;34;20190;-68
2021/05/04 06:54:38;;;;;;;2.75;2.10;;;;;;;;;;4154223;34;20130;-72
2021/05/04 06:57:04;;;;;;;1.40;1.30;;;;;;;;;;4150245;34;20614;-72
2021/05/04 06:59:30;;;;;;;4.87;2.20;;;;;;;;;;4137812;34;20613;-72
2021/05/04 07:01:59;;;;;;;2.25;1.58;;;;;;;;;;4150360;34;20103;-72
2021/05/04 07:04:26;;;;;;;5.00;1.70;;;;;;;;;;4149826;34;20099;-71
2021/05/04 07:06:52;;;;;;;3.62;2.00;;;;;;;;;;4150046;34;20111;-71
2021/05/04 07:09:18;;;;;;;2.33;1.60;;;;;;;;;;4150131;34;20197;-71
2021/05/04 07:11:44;;;;;;;4.95;2.37;;;;;;;;;;4150161;34;20118;-71
2021/05/04 07:14:10;;;;;;;8.50;2.53;;;;;;;;;;4149571;34;20134;-71
2021/05/04 07:16:37;;;;;;;6.15;2.35;;;;;;;;;;4149970;34;20574;-71
2021/05/04 07:19:03;;;;;;;8.63;2.42;;;;;;;;;;4137661;34;20447;-70
2021/05/04 07:21:29;;;;;;;8.30;2.10;;;;;;;;;;4137511;34;20547;-69
2021/05/04 07:23:55;;;;;;;3.78;2.47;;;;;;;;;;4137455;34;20142;-69
2021/05/04 07:26:21;;;;;;;7.28;3.25;;;;;;;;;;4148680;34;20123;-70
2021/05/04 07:28:47;;;;;;;6.93;2.40;;;;;;;;;;4135462;34;20115;-70
2021/05/04 07:31:13;;;;;;;9.65;4.35;;;;;;;;;;4147814;34;20281;-71
2021/05/04 07:33:39;;;;;;;10.25;2.55;;;;;;;;;;4147907;34;20221;-70
2021/05/04 07:36:05;;;;;;;10.30;5.10;;;;;;;;;;4148145;34;20216;-71
2021/05/04 07:38:31;;;;;;;5.70;4.18;;;;;;;;;;4148076;34;20207;-71
2021/05/04 07:40:57;;;;;;;9.25;3.40;;;;;;;;;;4136040;34;20202;-72
2021/05/04 07:43:23;;;;;;;7.28;2.00;;;;;;;;;;4137476;34;20157;-72
2021/05/04 07:45:49;;;;;;;4.78;2.97;;;;;;;;;;4149541;34;20650;-73
2021/05/04 07:48:16;;;;;;;6.00;2.62;;;;;;;;;;4151706;34;20549;-71
2021/05/04 07:50:42;;;;;;;13.80;4.50;;;;;;;;;;4151646;34;20129;-72
2021/05/04 07:53:08;;;;;;;29.33;10.35;;;;;;;;;;4151754;34;20119;-71
2021/05/04 07:55:34;;;;;;;31.55;10.30;;;;;;;;;;4150424;34;20106;-72
2021/05/04 07:58:00;;;;;;;31.58;12.55;;;;;;;;;;4151609;34;20123;-72
2021/05/04 08:00:26;;;;;;;20.90;7.32;;;;;;;;;;4151614;34;20131;-70
2021/05/04 08:02:52;;;;;;;9.68;3.72;;;;;;;;;;4139209;34;20547;-69
2021/05/04 08:05:18;;;;;;;21.10;6.03;;;;;;;;;;4151467;34;20135;-70
2021/05/04 08:07:44;;;;;;;25.08;10.73;;;;;;;;;;4151477;34;20107;-70
2021/05/04 08:10:11;;;;;;;19.12;4.10;;;;;;;;;;4151566;34;20558;-69
2021/05/04 08:12:37;;;;;;;16.23;7.30;;;;;;;;;;4151481;34;20119;-71
2021/05/04 08:15:07;;;;;;;17.48;7.43;;;;;;;;;;4151683;34;20099;-69
2021/05/04 08:17:35;;;;;;;14.82;3.83;;;;;;;;;;4151484;34;20095;-71
2021/05/04 08:20:03;;;;;;;8.73;3.87;;;;;;;;;;4151377;34;20095;-70
2021/05/04 08:22:29;;;;;;;34.63;12.00;;;;;;;;;;4151333;34;20527;-70
2021/05/04 08:24:59;;;;;;;41.65;15.90;;;;;;;;;;4151435;34;20133;-70
2021/05/04 08:27:25;;;;;;;34.90;12.27;;;;;;;;;;4151520;34;20523;-70
2021/05/04 08:29:51;;;;;;;26.08;9.13;;;;;;;;;;4138817;34;20126;-70
2021/05/04 08:32:17;;;;;;;31.77;9.75;;;;;;;;;;4151151;34;20544;-74
2021/05/04 08:34:43;;;;;;;17.75;6.95;;;;;;;;;;4138658;34;20485;-71
2021/05/04 08:37:09;;;;;;;27.25;9.65;;;;;;;;;;4138749;34;20111;-72
2021/05/04 08:39:35;;;;;;;28.23;9.77;;;;;;;;;;4138748;34;20147;-71
2021/05/04 08:42:00;;;;;;;16.48;7.78;;;;;;;;;;4138837;34;20199;-71
2021/05/04 08:44:26;;;;;;;27.45;10.60;;;;;;;;;;4151247;34;20206;-71
2021/05/04 08:46:52;;;;;;;27.92;11.12;;;;;;;;;;4151103;34;20545;-72
2021/05/04 08:49:19;;;;;;;27.50;10.80;;;;;;;;;;4151428;34;20612;-72
2021/05/04 08:51:49;;;;;;;33.40;9.95;;;;;;;;;;4151098;34;20099;-72
2021/05/04 08:54:18;;;;;;;14.13;2.97;;;;;;;;;;4127699;34;20126;-72
2021/05/04 08:56:44;;;;;;;11.10;5.53;;;;;;;;;;4138735;34;20214;-71
2021/05/04 08:59:10;;;;;;;37.38;14.60;;;;;;;;;;4151359;34;20134;-71
2021/05/04 09:01:36;;;;;;;29.05;9.68;;;;;;;;;;4138500;34;20123;-70
2021/05/04 09:04:07;;;;;;;24.50;8.80;;;;;;;;;;4138585;34;20141;-71
2021/05/04 09:06:36;;;;;;;12.55;3.95;;;;;;;;;;4138667;34;20205;-71
2021/05/04 09:09:11;;;;;;;16.50;7.95;;;;;;;;;;4149730;34;20126;-70
2021/05/04 09:21:36;;;;;;;10.30;4.10;;;;;;;;;;4150942;34;20138;-72
2021/05/04 09:24:17;;;;;;;12.80;6.37;;;;;;;;;;4149673;34;20134;-72
2021/05/04 09:26:43;;;;;;;9.75;3.20;;;;;;;;;;4150095;34;20111;-71
2021/05/04 09:29:10;;;;;;;16.08;6.87;;;;;;;;;;4138320;34;20218;-71
2021/05/04 09:31:40;;;;;;;21.60;6.28;;;;;;;;;;4150972;34;20545;-74
2021/05/04 09:34:10;;;;;;;18.15;5.35;;;;;;;;;;4127383;34;20460;-74
2021/05/04 09:36:47;;;;;;;13.77;5.55;;;;;;;;;;4149498;34;20155;-74
2021/05/04 09:39:30;;;;;;;22.37;8.82;;;;;;;;;;4138157;34;20544;-72
2021/05/04 09:41:57;;;;;;;14.07;6.82;;;;;;;;;;4150932;34;20100;-73
2021/05/04 09:44:36;;;;;;;17.00;6.07;;;;;;;;;;4150701;34;20475;-74
2021/05/04 09:47:05;;;;;;;10.85;3.97;;;;;;;;;;4138095;34;20130;-70
2021/05/04 09:49:38;;;;;;;5.37;2.35;;;;;;;;;;4146859;34;20438;-69
2021/05/04 09:54:49;;;;;;;9.88;3.67;;;;;;;;;;4148646;34;20558;-69
2021/05/04 09:57:41;;;;;;;11.95;3.67;;;;;;;;;;4150724;34;20528;-69
2021/05/04 10:00:11;;;;;;;14.23;4.18;;;;;;;;;;4150693;34;20099;-69
2021/05/04 10:02:37;;;;;;;7.47;3.65;;;;;;;;;;4150630;34;20150;-69
2021/05/04 10:05:04;;;;;;;14.75;6.32;;;;;;;;;;4150322;34;20530;-69
2021/05/04 10:07:31;;;;;;;16.02;5.60;;;;;;;;;;4150377;34;20509;-70
2021/05/04 10:09:58;;;;;;;10.30;4.28;;;;;;;;;;4149539;34;20130;-69
2021/05/04 10:12:24;;;;;;;8.40;3.47;;;;;;;;;;4138151;34;20266;-70
2021/05/04 10:14:51;;;;;;;3.70;2.67;;;;;;;;;;4135399;34;20135;-69
2021/05/04 10:17:19;;;;;;;5.55;2.30;;;;;;;;;;4135513;34;20151;-70
2021/05/04 10:19:44;;;;;;;7.03;2.83;;;;;;;;;;4142204;34;20106;-71
2021/05/04 10:22:11;;;;;;;13.55;3.33;;;;;;;;;;4148844;34;20194;-69
2021/05/04 10:24:38;;;;;;;6.87;2.35;;;;;;;;;;4150163;34;20628;-69
2021/05/04 10:27:04;;;;;;;9.02;3.70;;;;;;;;;;4137647;34;20122;-69
2021/05/04 10:29:31;;;;;;;14.90;4.03;;;;;;;;;;4137662;34;20167;-69
2021/05/04 10:32:00;;;;;;;8.43;2.40;;;;;;;;;;4150429;34;20198;-69
2021/05/04 10:34:33;;;;;;;5.10;2.25;;;;;;;;;;4137468;34;20126;-69
2021/05/04 10:37:01;;;;;;;1.58;1.48;;;;;;;;;;4150160;34;20108;-69
2021/05/04 10:39:39;;;;;;;4.43;2.28;;;;;;;;;;4137513;34;20989;-69
2021/05/04 10:42:07;;;;;;;3.20;2.40;;;;;;;;;;4150398;34;20115;-69
2021/05/04 10:44:58;;;;;;;3.83;2.53;;;;;;;;;;4150079;34;20084;-69
2021/05/04 10:47:42;;;;;;;4.10;2.47;;;;;;;;;;4150254;34;20183;-69
2021/05/04 10:50:28;;;;;;;3.70;2.40;;;;;;;;;;4149830;34;20119;-69
2021/05/04 10:52:58;;;;;;;3.50;2.03;;;;;;;;;;4138346;34;20115;-69
2021/05/04 10:55:26;;;;;;;16.80;3.47;;;;;;;;;;4150089;34;20122;-69
2021/05/04 10:58:01;;;;;;;12.32;3.65;;;;;;;;;;4150527;34;20544;-69
2021/05/04 11:01:04;;;;;;;3.35;2.60;;;;;;;;;;4150296;34;20455;-71
2021/05/04 11:03:30;;;;;;;6.00;2.05;;;;;;;;;;4150086;34;20218;-71
2021/05/04 11:06:00;;;;;;;7.00;3.03;;;;;;;;;;4148236;34;20215;-70
2021/05/04 11:08:42;;;;;;;9.52;2.45;;;;;;;;;;4137397;34;20107;-70
2021/05/04 11:11:36;;;;;;;4.72;2.20;;;;;;;;;;4149824;34;20116;-71
2021/05/04 11:14:08;;;;;;;5.53;2.37;;;;;;;;;;4149846;34;20104;-71
2021/05/04 11:16:41;;;;;;;9.18;2.30;;;;;;;;;;4137314;34;20155;-70
2021/05/04 11:19:08;;;;;;;11.80;3.30;;;;;;;;;;4149689;34;20566;-70
2021/05/04 11:21:49;;;;;;;3.97;2.12;;;;;;;;;;4151010;34;20102;-70
2021/05/04 11:24:19;;;;;;;5.25;2.37;;;;;;;;;;4151906;34;20110;-71
2021/05/04 11:26:49;;;;;;;2.42;1.48;;;;;;;;;;4139065;34;20146;-71
2021/05/04 11:29:16;;;;;;;3.75;2.50;;;;;;;;;;4151419;34;20177;-70
2021/05/04 11:31:49;;;;;;;9.07;2.78;;;;;;;;;;4139512;34;20142;-70
2021/05/04 11:34:38;;;;;;;14.23;3.70;;;;;;;;;;4151947;34;20268;-71
2021/05/04 11:37:24;;;;;;;6.82;2.58;;;;;;;;;;4151793;34;20118;-70
2021/05/04 11:39:54;;;;;;;4.97;2.50;;;;;;;;;;4151101;34;20452;-70
2021/05/04 11:42:21;;;;;;;4.97;3.05;;;;;;;;;;4151664;34;20196;-70
2021/05/04 11:44:47;;;;;;;3.08;1.87;;;;;;;;;;4151521;34;20126;-69
2021/05/04 11:47:25;;;;;;;6.10;2.20;;;;;;;;;;4138627;34;20210;-70
2021/05/04 11:49:51;;;;;;;10.15;2.53;;;;;;;;;;4151341;34;20119;-70
2021/05/04 11:52:17;;;;;;;5.87;2.45;;;;;;;;;;4139018;34;20139;-70
2021/05/04 11:54:49;;;;;;;2.67;2.05;;;;;;;;;;4151221;34;20130;-69
2021/05/04 11:57:15;;;;;;;5.43;2.28;;;;;;;;;;4151448;34;20123;-70
2021/05/04 11:59:41;;;;;;;9.70;2.72;;;;;;;;;;4151701;34;20229;-70
2021/05/04 12:02:06;;;;;;;6.50;2.17;;;;;;;;;;4151731;34;20118;-70
2021/05/04 12:04:49;;;;;;;2.15;1.83;;;;;;;;;;4136766;34;20119;-70
2021/05/04 12:07:40;;;;;;;5.45;2.45;;;;;;;;;;4137795;34;20453;-70
2021/05/04 12:10:23;;;;;;;4.22;2.17;;;;;;;;;;4145052;34;20217;-70
2021/05/04 12:12:52;;;;;;;3.40;2.10;;;;;;;;;;4151473;34;20104;-70
2021/05/04 12:15:26;;;;;;;12.48;3.28;;;;;;;;;;4136525;34;20220;-70
2021/05/04 12:18:06;;;;;;;4.55;2.40;;;;;;;;;;4136549;34;20119;-71
2021/05/04 12:20:37;;;;;;;4.93;2.20;;;;;;;;;;4136551;34;20512;-71
2021/05/04 12:23:06;;;;;;;5.15;2.30;;;;;;;;;;4137812;34;20127;-70
2021/05/04 12:26:18;;;;;;;7.93;2.03;;;;;;;;;;4136094;34;20521;-71
2021/05/04 12:28:54;;;;;;;3.92;2.08;;;;;;;;;;4071440;35;20130;-71
2021/05/04 12:31:21;;;;;;;3.67;1.70;;;;;;;;;;4147068;34;20139;-72
2021/05/04 12:33:49;;;;;;;6.80;2.78;;;;;;;;;;4138404;34;20122;-72
2021/05/04 12:36:50;;;;;;;10.52;2.40;;;;;;;;;;4138897;34;20111;-74
2021/05/04 12:39:19;;;;;;;9.73;2.20;;;;;;;;;;4151370;34;20195;-73
2021/05/04 12:41:49;;;;;;;5.12;2.62;;;;;;;;;;4151124;34;20516;-73
2021/05/04 12:44:25;;;;;;;4.82;2.17;;;;;;;;;;4151027;34;20110;-73
2021/05/04 12:46:55;;;;;;;11.50;2.15;;;;;;;;;;4150943;34;20181;-72
2021/05/04 12:49:35;;;;;;;13.05;2.03;;;;;;;;;;4151377;34;20537;-71
2021/05/04 12:52:10;;;;;;;8.57;2.60;;;;;;;;;;4151129;34;20138;-74
2021/05/04 12:54:36;;;;;;;2.83;2.25;;;;;;;;;;4151263;34;20112;-73
2021/05/04 12:57:19;;;;;;;5.25;2.25;;;;;;;;;;4151029;34;20127;-71
2021/05/04 12:59:45;;;;;;;9.93;2.60;;;;;;;;;;4138491;34;20141;-74
2021/05/04 13:02:20;;;;;;;16.60;2.70;;;;;;;;;;4138808;34;20135;-72
2021/05/04 13:07:24;;;;;;;5.75;2.00;;;;;;;;;;4150942;34;20224;-72
2021/05/04 13:09:58;;;;;;;12.60;1.92;;;;;;;;;;4151015;34;20099;-72
2021/05/04 13:15:38;;;;;;;3.40;1.92;;;;;;;;;;4150872;34;20543;-73
2021/05/04 13:18:32;;;;;;;3.97;1.92;;;;;;;;;;4150750;34;20204;-70
2021/05/04 13:29:33;;;;;;;7.65;2.30;;;;;;;;;;4151128;34;20182;-72
2021/05/04 13:32:37;;;;;;;5.37;2.17;;;;;;;;;;4139407;34;20110;-71
2021/05/04 13:34:58;;;;;;;11.90;2.67;;;;;;;;;;4149149;34;20118;-69
2021/05/04 13:37:54;;;;;;;7.30;2.10;;;;;;;;;;4150682;34;20103;-69
2021/05/04 13:40:44;;;;;;;7.32;2.90;;;;;;;;;;4150669;34;20111;-70
2021/05/04 13:48:38;;;;;;;11.63;2.78;;;;;;;;;;4150655;34;20103;-70
2021/05/04 13:51:05;;;;;;;4.12;2.20;;;;;;;;;;4150667;34;20134;-69
2021/05/04 13:53:31;;;;;;;10.85;2.70;;;;;;;;;;4150877;34;20119;-69
2021/05/04 13:55:57;;;;;;;6.60;2.33;;;;;;;;;;4126810;34;20175;-70
2021/05/04 13:58:27;;;;;;;7.87;2.47;;;;;;;;;;4150655;34;20095;-67
2021/05/04 14:03:47;;;;;;;1.92;1.33;;;;;;;;;;4138122;34;20107;-71
2021/05/04 14:09:02;;;;;;;7.12;1.67;;;;;;;;;;4138128;34;20543;-71
2021/05/04 14:25:12;;;;;;;9.15;2.60;;;;;;;;;;4150386;34;20126;-70
2021/05/04 14:27:39;;;;;;;9.25;2.97;;;;;;;;;;4140181;34;20191;-71
2021/05/04 14:30:06;;;;;;;6.28;2.20;;;;;;;;;;4137833;34;20211;-70
2021/05/04 14:32:32;;;;;;;11.82;2.83;;;;;;;;;;4150406;34;20212;-70
2021/05/04 14:35:03;;;;;;;11.23;2.20;;;;;;;;;;4150154;34;20692;-70
2021/05/04 14:40:11;;;;;;;4.40;2.65;;;;;;;;;;4150225;34;20464;-70
2021/05/04 14:53:56;;;;;;;7.47;2.30;;;;;;;;;;4150181;34;20106;-70
2021/05/04 14:59:16;;;;;;;9.27;2.47;;;;;;;;;;4150160;34;20250;-70
2021/05/04 15:01:46;;;;;;;11.35;2.65;;;;;;;;;;4150025;34;20162;-69
2021/05/04 15:04:15;;;;;;;9.38;2.95;;;;;;;;;;4150097;34;20111;-69
2021/05/04 15:06:41;;;;;;;8.23;2.53;;;;;;;;;;4150128;34;20111;-70
2021/05/04 15:09:09;;;;;;;9.60;3.00;;;;;;;;;;4150067;34;20223;-69
2021/05/04 15:11:35;;;;;;;17.77;3.40;;;;;;;;;;4149947;34;20223;-70
2021/05/04 15:14:02;;;;;;;8.32;3.00;;;;;;;;;;4150066;34;20190;-71
2021/05/04 15:16:44;;;;;;;14.75;2.50;;;;;;;;;;4149847;34;20143;-70
2021/05/04 15:22:00;;;;;;;9.13;3.15;;;;;;;;;;4150014;34;20095;-70
2021/05/04 15:24:26;;;;;;;8.30;2.55;;;;;;;;;;4150149;34;20220;-71
2021/05/04 15:26:52;;;;;;;5.60;2.40;;;;;;;;;;4137270;34;20190;-71
2021/05/04 15:29:19;;;;;;;10.45;2.30;;;;;;;;;;4137248;34;20224;-70
2021/05/04 15:31:51;;;;;;;13.98;2.53;;;;;;;;;;4149711;34;20099;-71
2021/05/04 15:34:17;;;;;;;6.15;2.12;;;;;;;;;;4149766;34;20515;-71
2021/05/04 15:36:43;;;;;;;12.93;2.70;;;;;;;;;;4148290;34;20186;-70
2021/05/04 15:39:10;;;;;;;10.43;2.60;;;;;;;;;;4126405;34;20146;-71
2021/05/04 15:41:38;;;;;;;10.55;2.75;;;;;;;;;;4149637;34;20208;-71
2021/05/04 15:44:05;;;;;;;6.70;2.42;;;;;;;;;;4149658;34;20123;-71
2021/05/04 15:46:37;;;;;;;2.65;2.22;;;;;;;;;;4149780;34;20573;-71
2021/05/04 16:10:38;;;;;;;1.60;1.50;;;;;;;;;;4151631;34;20130;-74
2021/05/04 16:13:04;;;;;;;1.60;1.50;;;;;;;;;;4139181;34;20126;-68
2021/05/04 16:15:30;;;;;;;3.00;1.77;;;;;;;;;;4151500;34;20515;-69
2021/05/04 16:17:56;;;;;;;3.35;1.40;;;;;;;;;;4151539;34;20123;-67
2021/05/04 16:21:00;;;;;;;2.35;1.80;;;;;;;;;;4150602;34;20122;-66
2021/05/04 16:23:31;;;;;;;1.95;1.50;;;;;;;;;;4129577;34;20100;-67
2021/05/04 16:28:35;;;;;;;6.70;4.72;;;;;;;;;;4150572;34;20091;-67
2021/05/04 16:31:02;;;;;;;7.43;4.32;;;;;;;;;;4136732;34;20220;-67
2021/05/04 16:33:27;;;;;;;5.20;4.22;;;;;;;;;;4137849;34;20221;-68
2021/05/04 16:35:53;;;;;;;4.35;3.58;;;;;;;;;;4147316;34;20598;-67
2021/05/04 16:38:19;;;;;;;5.65;3.33;;;;;;;;;;4137909;34;20103;-67
2021/05/04 16:40:45;;;;;;;5.05;3.75;;;;;;;;;;4142255;34;20127;-67
2021/05/04 16:43:11;;;;;;;3.90;3.55;;;;;;;;;;4149895;34;20119;-68
2021/05/04 16:45:40;;;;;;;4.97;3.80;;;;;;;;;;4151384;34;20141;-69
2021/05/04 16:48:06;;;;;;;3.35;2.70;;;;;;;;;;4151172;34;20178;-68
2021/05/04 16:50:33;;;;;;;5.30;3.05;;;;;;;;;;4150858;34;20134;-68